Impacts TAF Board
For situational awareness. Not to be used for flight planning purposes.
IDs:

KDTW - Detroit Metro/Wayne, MI, US

Issued at 0307 UTC 12 Dec 2018
Updated at 0403 UTC 12 Dec 2018
Potential Impact None Slight Moderate High
Time0353Z 12/05Z 12/06Z 12/07Z 12/08Z 12/09Z 12/10Z 12/11Z 12/12Z 12/13Z 12/14Z 12/15Z 12/16Z 12/17Z>>
Type OBS PRVL PRVL PRVL PRVL PRVL PRVL PRVL PRVL PRVL PRVL PRVL PRVL PRVL
VIS 7 >6 >6 >6 >6 >6 3 3 3 3 >6 >6 >6 >6
CIG 35 35 35 35 35 35 15 15 15 15 25 25 25 25
Cover OVC BKN BKN BKN BKN BKN OVC OVC OVC OVC OVC OVC OVC OVC
FltCat VFR VFR VFR VFR VFR VFR MVFR MVFR MVFR MVFR MVFR MVFR MVFR MVFR
WX -- -- -- -- -- -- BR BR BR BR -- -- -- --
WDir 250 VRB VRB VRB VRB VRB 120 120 120 120 140 140 140 140
WSpd 4 3 3 3 3 3 5 5 5 5 7 7 7 7
WGst -- -- -- -- -- -- -- -- -- -- -- -- -- --
Raw TAF
KDTW 120307Z 1203/1306 VRB03KT P6SM BKN035
  FM121000 12005KT 3SM BR BKN015 OVC025
  FM121400 14007KT P6SM OVC025
  TEMPO 1221/1301 4SM -RASN OVC015


Raw METAR
KDTW 120353Z 25004KT 7SM OVC035 M01/M06 A3010 RMK AO2 SLP200 T10111061
KDTW 120253Z 29005KT 8SM OVC035 00/M06 A3009 RMK AO2 SLP197 T00001061 51007
KDTW 120153Z 31006KT 9SM OVC035 00/M06 A3009 RMK AO2 SLP196 T00001061

METAR Board
Radar Display
Forecast Discussion
For situational awareness. Not to be used for flight planning purposes.